createdAt,value
2018-03-31T00:00:27.349Z,12.90
2018-03-31T00:02:54.487Z,12.80
2018-03-31T00:05:21.468Z,13.47
2018-03-31T00:07:48.455Z,12.70
2018-03-31T00:10:15.437Z,13.60
2018-03-31T00:12:42.426Z,11.53
2018-03-31T00:15:09.497Z,13.20
2018-03-31T00:17:36.481Z,12.63
2018-03-31T00:20:03.539Z,13.20
2018-03-31T00:22:30.598Z,13.83
2018-03-31T00:24:57.696Z,13.80
2018-03-31T00:27:24.682Z,13.20
2018-03-31T00:29:51.714Z,13.40
2018-03-31T00:32:18.843Z,13.13
2018-03-31T00:34:45.826Z,13.53
2018-03-31T00:37:12.864Z,13.57
2018-03-31T00:39:39.999Z,13.40
2018-03-31T00:42:07.057Z,14.40
2018-03-31T00:44:34.077Z,12.50
2018-03-31T00:47:01.146Z,15.13
2018-03-31T00:49:28.130Z,14.17
2018-03-31T00:51:55.217Z,13.93
2018-03-31T00:54:22.209Z,11.97
2018-03-31T00:56:49.203Z,14.43
2018-03-31T00:59:16.184Z,13.37
2018-03-31T01:01:43.205Z,14.40
2018-03-31T01:04:10.183Z,14.87
2018-03-31T01:06:37.171Z,12.97
2018-03-31T01:09:04.153Z,14.60
2018-03-31T01:11:31.134Z,10.57
2018-03-31T01:13:58.109Z,14.27
2018-03-31T01:16:25.101Z,14.53
2018-03-31T01:18:52.101Z,12.03
2018-03-31T01:21:19.076Z,14.50
2018-03-31T01:23:46.127Z,14.50
2018-03-31T01:26:13.201Z,14.60
2018-03-31T01:28:40.191Z,14.67
2018-03-31T01:31:07.181Z,14.97
2018-03-31T01:33:34.214Z,13.93
2018-03-31T01:36:01.189Z,14.50
2018-03-31T01:38:28.179Z,13.60
2018-03-31T01:40:55.251Z,14.07
2018-03-31T01:43:22.247Z,14.17
2018-03-31T01:45:49.239Z,13.63
2018-03-31T01:48:16.291Z,13.37
2018-03-31T01:50:43.274Z,14.13
2018-03-31T01:53:10.260Z,14.30
2018-03-31T01:55:37.336Z,14.80
2018-03-31T01:58:04.383Z,14.53
2018-03-31T02:00:31.372Z,13.53
2018-03-31T02:02:58.477Z,14.47
2018-03-31T02:05:25.702Z,13.70
2018-03-31T02:07:52.757Z,14.93
2018-03-31T02:10:20.037Z,14.87
2018-03-31T02:12:47.121Z,14.47
2018-03-31T02:15:14.230Z,14.53
2018-03-31T02:17:41.209Z,13.93
2018-03-31T02:20:08.375Z,14.20
2018-03-31T02:22:35.362Z,14.77
2018-03-31T02:25:02.431Z,14.03
2018-03-31T02:27:29.478Z,14.33
2018-03-31T02:29:56.690Z,14.53
2018-03-31T02:32:23.680Z,14.50
2018-03-31T02:34:50.927Z,14.23
2018-03-31T02:37:17.907Z,14.50
2018-03-31T02:39:44.893Z,14.20
2018-03-31T02:42:11.968Z,12.00
2018-03-31T02:44:39.198Z,14.00
2018-03-31T02:47:06.178Z,14.23
2018-03-31T02:49:33.212Z,13.83
2018-03-31T02:52:00.312Z,14.57
2018-03-31T02:54:27.343Z,13.57
2018-03-31T02:56:54.325Z,14.30
2018-03-31T02:59:21.321Z,14.37
2018-03-31T03:01:48.298Z,14.73
2018-03-31T03:04:15.297Z,13.83
2018-03-31T03:06:42.265Z,13.53
2018-03-31T03:09:09.251Z,14.43
2018-03-31T03:11:36.221Z,13.63
2018-03-31T03:14:03.216Z,14.80
2018-03-31T03:16:30.214Z,13.97
2018-03-31T03:18:57.278Z,14.07
2018-03-31T03:21:24.325Z,14.23
2018-03-31T03:23:51.373Z,14.83
2018-03-31T03:26:18.353Z,13.10
2018-03-31T03:28:45.334Z,9.70
2018-03-31T03:31:12.604Z,15.03
2018-03-31T03:33:39.670Z,14.50
2018-03-31T03:36:06.646Z,13.80
2018-03-31T03:38:33.632Z,13.93
2018-03-31T03:41:00.638Z,13.80
2018-03-31T03:43:27.653Z,13.10
2018-03-31T03:45:54.635Z,13.33
2018-03-31T03:48:21.629Z,14.37
2018-03-31T03:50:48.613Z,14.00
2018-03-31T03:53:15.601Z,14.73
2018-03-31T03:55:42.573Z,13.23
2018-03-31T03:58:09.569Z,14.50
2018-03-31T04:00:36.569Z,13.23
2018-03-31T04:03:03.553Z,14.03
2018-03-31T04:05:30.545Z,14.33
2018-03-31T04:07:57.521Z,13.47
2018-03-31T04:10:24.497Z,15.17
2018-03-31T04:12:51.470Z,13.63
2018-03-31T04:15:18.445Z,14.20
2018-03-31T04:17:45.440Z,13.17
2018-03-31T04:20:12.425Z,13.50
2018-03-31T04:22:39.430Z,13.60
2018-03-31T04:25:06.464Z,14.07
2018-03-31T04:27:33.452Z,13.57
2018-03-31T04:30:00.525Z,14.23
2018-03-31T04:32:27.579Z,13.57
2018-03-31T04:34:54.566Z,14.47
2018-03-31T04:37:21.554Z,14.97
2018-03-31T04:39:48.532Z,14.37
2018-03-31T04:42:15.510Z,13.77
2018-03-31T04:44:42.508Z,15.20
2018-03-31T04:47:09.524Z,15.33
2018-03-31T04:49:36.517Z,14.30
2018-03-31T04:52:03.496Z,15.67
2018-03-31T04:54:30.478Z,15.40
2018-03-31T04:56:57.456Z,12.50
2018-03-31T04:59:24.498Z,14.47
2018-03-31T05:01:51.482Z,14.50
2018-03-31T05:04:18.500Z,14.03
2018-03-31T05:06:45.495Z,15.03
2018-03-31T05:09:12.487Z,14.77
2018-03-31T05:11:39.470Z,15.27
2018-03-31T05:14:06.450Z,15.00
2018-03-31T05:16:33.502Z,14.97
2018-03-31T05:19:00.870Z,16.30
2018-03-31T05:21:27.921Z,14.93
2018-03-31T05:23:54.911Z,16.57
2018-03-31T05:26:21.932Z,15.73
2018-03-31T05:28:48.928Z,15.27
2018-03-31T05:31:15.918Z,15.87
2018-03-31T05:33:42.971Z,15.17
2018-03-31T05:36:09.958Z,15.47
2018-03-31T05:38:36.950Z,15.93
2018-03-31T05:41:03.947Z,14.87
2018-03-31T05:43:30.971Z,14.40
2018-03-31T05:45:58.005Z,14.90
2018-03-31T05:48:24.985Z,16.07
2018-03-31T05:50:51.969Z,14.77
2018-03-31T05:53:18.968Z,15.90
2018-03-31T05:55:45.964Z,15.07
2018-03-31T05:58:12.958Z,16.43
2018-03-31T06:00:39.987Z,14.60
2018-03-31T06:03:06.965Z,14.53
2018-03-31T06:05:33.945Z,14.37
2018-03-31T06:08:01.024Z,15.10
2018-03-31T06:10:28.084Z,14.70
2018-03-31T06:12:55.061Z,15.40
2018-03-31T06:15:22.037Z,13.90
2018-03-31T06:17:49.116Z,14.90
2018-03-31T06:20:16.101Z,16.40
2018-03-31T06:22:43.077Z,14.13
2018-03-31T06:25:10.057Z,14.33
2018-03-31T06:27:37.034Z,14.97
2018-03-31T06:30:04.021Z,15.83
2018-03-31T06:32:31.015Z,15.10
2018-03-31T06:34:58.010Z,15.63
2018-03-31T06:37:25.048Z,14.20
2018-03-31T06:39:52.012Z,16.00
2018-03-31T06:42:19.009Z,13.57
2018-03-31T06:44:45.996Z,15.80
2018-03-31T06:47:13.007Z,16.70
2018-03-31T06:49:39.998Z,17.03
2018-03-31T06:52:06.984Z,15.67
2018-03-31T06:54:34.018Z,16.60
2018-03-31T06:57:01.004Z,16.90
2018-03-31T06:59:28.116Z,16.87
2018-03-31T07:01:55.149Z,16.10
2018-03-31T07:04:22.133Z,15.77
2018-03-31T07:06:49.165Z,15.47
2018-03-31T07:09:16.154Z,15.90
2018-03-31T07:11:43.155Z,16.60
2018-03-31T07:14:10.133Z,15.97
2018-03-31T07:16:37.108Z,17.60
2018-03-31T07:19:04.187Z,17.43
2018-03-31T07:21:31.234Z,16.57
2018-03-31T07:23:58.209Z,16.97
2018-03-31T07:26:25.229Z,18.27
2018-03-31T07:28:52.224Z,14.93
2018-03-31T07:31:19.201Z,17.20
2018-03-31T07:33:46.185Z,18.13
2018-03-31T07:36:13.157Z,15.10
2018-03-31T07:38:40.138Z,18.13
2018-03-31T07:41:07.121Z,18.87
2018-03-31T07:43:34.093Z,18.67
2018-03-31T07:46:01.090Z,18.70
2018-03-31T07:48:28.166Z,19.70
2018-03-31T07:50:55.150Z,18.10
2018-03-31T07:53:22.133Z,18.57
2018-03-31T07:55:49.122Z,18.27
2018-03-31T07:58:16.093Z,17.00
2018-03-31T08:00:43.188Z,19.13
2018-03-31T08:03:10.236Z,19.77
2018-03-31T08:05:37.225Z,20.40
2018-03-31T08:08:04.333Z,19.47
2018-03-31T08:10:31.346Z,19.73
2018-03-31T08:12:58.326Z,19.67
2018-03-31T08:15:25.373Z,21.03
2018-03-31T08:17:52.349Z,19.87
2018-03-31T08:20:19.335Z,20.20
2018-03-31T08:22:46.330Z,20.23
2018-03-31T08:25:13.325Z,20.90
2018-03-31T08:27:40.318Z,21.00
2018-03-31T08:30:07.293Z,18.63
2018-03-31T08:32:34.269Z,21.73
2018-03-31T08:35:01.273Z,20.03
2018-03-31T08:37:28.296Z,19.30
2018-03-31T08:39:55.278Z,20.77
2018-03-31T08:42:22.254Z,21.77
2018-03-31T08:44:49.242Z,21.83
2018-03-31T08:47:16.261Z,20.70
2018-03-31T08:49:43.241Z,19.90
2018-03-31T08:52:10.226Z,20.10
2018-03-31T08:54:37.220Z,21.60
2018-03-31T08:57:04.193Z,18.70
2018-03-31T08:59:31.181Z,20.27
2018-03-31T09:01:58.179Z,21.60
2018-03-31T09:04:25.177Z,21.80
2018-03-31T09:06:52.166Z,20.70
2018-03-31T09:09:19.197Z,22.07
2018-03-31T09:11:46.159Z,21.77
2018-03-31T09:14:13.146Z,22.17
2018-03-31T09:16:40.168Z,21.10
2018-03-31T09:19:07.155Z,22.93
2018-03-31T09:21:34.241Z,24.13
2018-03-31T09:24:01.224Z,23.97
2018-03-31T09:26:28.225Z,25.70
2018-03-31T09:28:55.211Z,22.70
2018-03-31T09:31:22.193Z,24.67
2018-03-31T09:33:49.189Z,24.17
2018-03-31T09:36:16.215Z,23.10
2018-03-31T09:38:43.196Z,22.17
2018-03-31T09:41:10.174Z,21.83
2018-03-31T09:43:37.262Z,21.27
2018-03-31T09:46:04.253Z,22.50
2018-03-31T09:48:31.252Z,23.00
2018-03-31T09:50:58.296Z,21.77
2018-03-31T09:53:25.282Z,16.73
2018-03-31T09:55:52.262Z,23.23
2018-03-31T09:58:19.239Z,23.33
2018-03-31T10:00:46.229Z,21.73
2018-03-31T10:03:13.321Z,24.23
2018-03-31T10:05:40.313Z,22.87
2018-03-31T10:08:07.303Z,22.83
2018-03-31T10:10:34.288Z,21.10
2018-03-31T10:13:01.310Z,21.33
2018-03-31T10:15:28.370Z,22.07
2018-03-31T10:17:55.352Z,24.07
2018-03-31T10:20:22.364Z,23.83
2018-03-31T10:22:49.345Z,22.83
2018-03-31T10:25:16.461Z,22.13
2018-03-31T10:27:43.477Z,23.47
2018-03-31T10:30:10.474Z,24.63
2018-03-31T10:32:37.468Z,22.77
2018-03-31T10:35:04.545Z,23.63
2018-03-31T10:37:31.528Z,22.73
2018-03-31T10:39:58.527Z,23.10
2018-03-31T10:42:25.520Z,23.10
2018-03-31T10:44:52.522Z,24.20
2018-03-31T10:47:19.540Z,22.50
2018-03-31T10:49:46.577Z,23.70
2018-03-31T10:52:13.579Z,23.53
2018-03-31T10:54:40.566Z,24.27
2018-03-31T10:57:07.571Z,23.27
2018-03-31T10:59:34.586Z,24.17
2018-03-31T11:02:01.578Z,22.40
2018-03-31T11:04:28.571Z,24.03
2018-03-31T11:06:55.562Z,23.53
2018-03-31T11:09:22.547Z,23.67
2018-03-31T11:11:49.531Z,24.27
2018-03-31T11:14:16.545Z,24.13
2018-03-31T11:16:43.648Z,22.40
2018-03-31T11:19:10.694Z,24.17
2018-03-31T11:21:37.680Z,23.47
2018-03-31T11:24:04.661Z,24.73
2018-03-31T11:26:31.670Z,23.53
2018-03-31T11:28:58.670Z,24.27
2018-03-31T11:31:25.718Z,22.53
2018-03-31T11:33:52.710Z,22.47
2018-03-31T11:36:19.702Z,23.10
2018-03-31T11:38:46.687Z,22.40
2018-03-31T11:41:13.724Z,23.87
2018-03-31T11:43:40.706Z,24.10
2018-03-31T11:46:07.708Z,23.23
2018-03-31T11:48:34.690Z,23.23
2018-03-31T11:51:01.711Z,23.63
2018-03-31T11:53:28.710Z,23.83
2018-03-31T11:55:55.736Z,24.53
2018-03-31T11:58:23.672Z,22.63
2018-03-31T12:00:50.705Z,22.47
2018-03-31T12:03:17.695Z,20.00
2018-03-31T12:05:44.694Z,21.90
2018-03-31T12:08:11.693Z,21.40
2018-03-31T12:10:38.677Z,21.63
2018-03-31T12:13:05.685Z,22.10
2018-03-31T12:15:32.681Z,22.63
2018-03-31T12:17:59.719Z,21.77
2018-03-31T12:20:26.728Z,23.77
2018-03-31T12:22:53.742Z,21.67
2018-03-31T12:25:20.896Z,22.00
2018-03-31T12:27:47.881Z,22.77
2018-03-31T12:30:14.906Z,21.33
2018-03-31T12:32:41.974Z,23.87
2018-03-31T12:35:09.087Z,23.03
2018-03-31T12:37:36.131Z,21.70
2018-03-31T12:40:03.137Z,22.77
2018-03-31T12:42:30.232Z,23.00
2018-03-31T12:44:57.248Z,21.50
2018-03-31T12:47:24.261Z,21.93
2018-03-31T12:49:51.282Z,23.43
2018-03-31T12:52:18.300Z,23.17
2018-03-31T12:54:45.311Z,22.40
2018-03-31T12:57:12.397Z,21.73
2018-03-31T12:59:39.382Z,21.43
2018-03-31T13:02:06.371Z,22.97
2018-03-31T13:04:33.354Z,22.03
2018-03-31T13:07:00.329Z,21.13
2018-03-31T13:09:27.330Z,24.13
2018-03-31T13:11:54.313Z,22.47
2018-03-31T13:14:21.312Z,23.23
2018-03-31T13:16:48.340Z,23.10
2018-03-31T13:19:15.332Z,22.70
2018-03-31T13:21:42.378Z,23.93
2018-03-31T13:24:09.378Z,21.93
2018-03-31T13:26:36.476Z,23.40
2018-03-31T13:29:03.463Z,23.77
2018-03-31T13:31:30.454Z,23.40
2018-03-31T13:33:57.515Z,22.63
2018-03-31T13:36:24.491Z,23.33
2018-03-31T13:38:51.509Z,24.60
2018-03-31T13:41:18.498Z,23.40
2018-03-31T13:43:45.487Z,24.07
2018-03-31T13:46:12.476Z,23.93
2018-03-31T15:10:35.904Z,25.60
2018-03-31T15:13:02.891Z,27.20
2018-03-31T15:15:29.973Z,27.37
2018-03-31T15:17:56.981Z,27.87
2018-03-31T15:20:24.037Z,26.47
2018-03-31T15:22:51.037Z,28.47
2018-03-31T15:25:18.026Z,27.73
2018-03-31T15:27:45.023Z,29.30
2018-03-31T15:30:12.845Z,28.63
2018-03-31T15:32:39.926Z,27.97
2018-03-31T15:35:07.070Z,29.80
2018-03-31T15:37:34.064Z,29.30
2018-03-31T15:40:01.222Z,29.10
2018-03-31T15:42:28.172Z,29.07
2018-03-31T15:44:55.163Z,29.03
2018-03-31T15:47:22.153Z,30.60
2018-03-31T15:49:49.261Z,27.47
2018-03-31T15:52:16.237Z,29.10
2018-03-31T17:16:40.305Z,28.97
2018-03-31T17:19:07.515Z,30.37
2018-03-31T17:21:34.995Z,31.70
2018-03-31T17:24:01.973Z,31.03
2018-03-31T17:26:29.050Z,30.43
2018-03-31T17:28:56.034Z,31.20
2018-03-31T17:31:23.457Z,32.10
2018-03-31T17:33:50.576Z,32.33
2018-03-31T17:36:17.559Z,33.33
2018-03-31T17:38:44.701Z,32.23
2018-03-31T17:41:11.859Z,32.27
2018-03-31T17:43:39.005Z,32.40
2018-03-31T17:46:06.050Z,33.20
2018-03-31T17:48:34.029Z,33.77
2018-03-31T17:51:01.039Z,34.37
2018-03-31T17:53:28.051Z,34.30
2018-03-31T17:55:55.171Z,34.00
2018-03-31T17:58:22.224Z,32.80
2018-03-31T18:00:49.277Z,33.63
2018-03-31T18:03:16.260Z,33.27
2018-03-31T18:05:43.303Z,33.53
2018-03-31T18:08:10.417Z,33.73
2018-03-31T18:10:37.420Z,33.33
2018-03-31T18:13:04.425Z,33.73
2018-03-31T18:15:31.409Z,35.47
2018-03-31T18:17:58.399Z,34.57
2018-03-31T18:20:25.387Z,36.57
2018-03-31T18:22:52.384Z,34.90
2018-03-31T18:25:19.382Z,35.17
2018-03-31T18:27:46.499Z,38.17
2018-03-31T18:30:13.495Z,37.40
2018-03-31T18:32:40.487Z,37.50
2018-03-31T18:35:07.490Z,35.77
2018-03-31T18:37:34.481Z,36.00
2018-03-31T18:40:01.484Z,35.00
2018-03-31T18:42:28.479Z,35.60
2018-03-31T18:44:55.480Z,36.13
2018-03-31T18:47:22.488Z,34.27
2018-03-31T18:49:49.470Z,32.60
2018-03-31T18:52:16.463Z,32.63
2018-03-31T18:54:43.598Z,34.63
2018-03-31T18:57:10.601Z,33.17
2018-03-31T18:59:37.599Z,33.57
2018-03-31T19:02:04.606Z,34.47
2018-03-31T19:04:32.260Z,33.37
2018-03-31T19:06:59.285Z,33.53
2018-03-31T19:09:26.298Z,33.80
2018-03-31T19:11:53.291Z,33.70
2018-03-31T19:14:20.308Z,31.23
2018-03-31T19:16:52.972Z,33.23
2018-03-31T19:19:19.996Z,30.20
2018-03-31T19:21:47.006Z,30.87
2018-03-31T19:24:14.026Z,28.93
2018-03-31T19:26:41.063Z,27.97
2018-03-31T19:29:08.101Z,29.67
2018-03-31T19:31:35.256Z,27.70
2018-03-31T19:34:02.272Z,25.40
2018-03-31T19:36:29.277Z,25.50
2018-03-31T19:38:56.911Z,24.43
2018-03-31T19:41:23.955Z,25.03
2018-03-31T19:43:51.041Z,25.90
2018-03-31T19:46:18.033Z,26.37
2018-03-31T19:48:45.957Z,26.50
2018-03-31T19:51:12.970Z,26.40
2018-03-31T19:53:40.135Z,25.97
2018-03-31T19:56:07.272Z,25.63
2018-03-31T19:58:34.455Z,26.90
2018-03-31T20:01:01.453Z,26.83
2018-03-31T20:03:28.511Z,25.60
2018-03-31T20:05:55.754Z,27.00
2018-03-31T20:08:22.753Z,27.43
2018-03-31T20:10:49.762Z,28.37
2018-03-31T20:13:16.790Z,27.73
2018-03-31T20:15:44.031Z,27.63
2018-03-31T20:18:11.149Z,29.37
2018-03-31T20:20:38.172Z,30.57
2018-03-31T20:44:00.083Z,25.30
2018-03-31T20:46:27.080Z,24.53
2018-03-31T20:48:54.081Z,25.60
2018-03-31T20:51:21.075Z,24.63
2018-03-31T20:53:48.063Z,26.87
2018-03-31T20:56:15.038Z,24.83
2018-03-31T20:58:42.044Z,24.27
2018-03-31T21:01:09.063Z,23.77
2018-03-31T21:03:36.075Z,24.40
2018-03-31T21:06:03.281Z,23.40
2018-03-31T21:08:30.296Z,22.73
2018-03-31T21:10:57.324Z,23.67
2018-03-31T21:13:24.309Z,24.43
2018-03-31T21:15:51.315Z,26.13
2018-03-31T21:18:18.294Z,25.13
2018-03-31T21:20:45.372Z,24.83
2018-03-31T21:23:12.358Z,24.17
2018-03-31T21:25:39.436Z,24.20
2018-03-31T21:28:06.418Z,24.97
2018-03-31T21:30:33.408Z,25.87
2018-03-31T21:33:00.420Z,25.93
2018-03-31T21:35:27.410Z,20.97
2018-03-31T21:37:54.472Z,21.43
2018-03-31T21:40:21.457Z,20.53
2018-03-31T21:42:48.463Z,21.57
2018-03-31T21:45:15.446Z,20.77
2018-03-31T21:47:42.432Z,18.90
2018-03-31T21:50:09.421Z,20.17
2018-03-31T21:52:36.400Z,21.27
2018-03-31T21:55:03.397Z,20.07
2018-03-31T21:57:30.463Z,20.43
2018-03-31T21:59:57.463Z,20.37
2018-03-31T22:02:24.460Z,19.30
2018-03-31T22:04:51.453Z,20.37
2018-03-31T22:07:18.466Z,18.73
2018-03-31T22:09:45.445Z,18.50
2018-03-31T22:12:12.444Z,17.93
2018-03-31T22:14:44.902Z,18.20
2018-03-31T22:17:11.885Z,18.80
2018-03-31T22:19:38.877Z,19.37
2018-03-31T22:22:05.864Z,18.83
2018-03-31T22:24:32.860Z,18.53
2018-03-31T22:26:59.939Z,17.23
2018-03-31T22:29:26.926Z,16.57
2018-03-31T22:31:53.931Z,17.40
2018-03-31T22:34:20.954Z,17.23
2018-03-31T22:36:47.958Z,15.73
2018-03-31T22:39:14.993Z,15.87
2018-03-31T22:41:42.002Z,15.10
2018-03-31T22:44:09.064Z,15.07
2018-03-31T22:46:36.050Z,14.50
2018-03-31T22:49:03.075Z,15.33
2018-03-31T22:51:30.109Z,14.47
2018-03-31T22:53:57.346Z,13.40
2018-03-31T22:56:24.349Z,13.20
2018-03-31T22:58:51.341Z,14.70
2018-03-31T23:01:18.339Z,13.83
2018-03-31T23:03:45.335Z,14.63
2018-03-31T23:06:12.327Z,13.53
2018-03-31T23:08:39.310Z,12.17
2018-03-31T23:11:06.319Z,12.67
2018-03-31T23:13:33.316Z,12.70
2018-03-31T23:16:00.328Z,12.10
2018-03-31T23:18:27.339Z,11.47
2018-03-31T23:20:54.321Z,11.23
2018-03-31T23:23:21.305Z,11.10
2018-03-31T23:25:48.302Z,10.60
2018-03-31T23:28:15.299Z,8.90
2018-03-31T23:30:42.285Z,9.70
2018-03-31T23:33:09.274Z,9.57
2018-03-31T23:35:36.263Z,9.13
2018-03-31T23:38:03.238Z,7.90
2018-03-31T23:40:30.229Z,7.80
2018-03-31T23:42:57.206Z,8.00
2018-03-31T23:45:24.197Z,7.80
2018-03-31T23:47:51.176Z,9.10
2018-03-31T23:50:18.190Z,8.23
2018-03-31T23:52:45.161Z,7.67
2018-03-31T23:55:12.156Z,7.23
2018-03-31T23:57:39.183Z,8.00
